Morganton, NC (28655)

9:03 AM EDT on May 22, 2015 (GMT -0400)
Burkemont | | Change Station
CLOSE
Current Station
Personal Weather Station
Location: Morganton, NC
Elevation: 1188 ft
Nearby Weather Stations

Elev 1188 ft 35.73 °N, 81.69 °W | Updated 13 seconds ago

Clear
Clear
57.4 °F
Feels Like 57.4 °F
N
2.2
Wind Variable Wind from SSW
Gusts 3.1 mph

Today
High -- | Low -- °F
--% Chance of Precip.
Yesterday
High -- | Low -- °F
Precip. -- in
6:16 AM 8:30 PM
Waxing Crescent, 21% visible
Pressure 30.24 in
Visibility 10.0 miles
Clouds Clear
Dew Point 43 °F
Humidity 59%
Rainfall 0.00 in
Snow Depth Not available.
UV 2 out of 12
Pollen 7.80 out of 12
Air Quality Not available.
Flu Activity No Activity
METAR KMRN 221235Z AUTO 32004KT 10SM CLR 14/05 A3024 RMK AO2 T01400053

More Conditions Fewer Conditions

Pressure 30.24 in
Visibility 10.0 miles
Clouds Clear
Dew Point 43 °F
Humidity 59%
Rainfall 0.00 in
Snow Depth Not available.
UV 2 out of 12
Pollen 7.80 out of 12
Air Quality Not available.
Flu Activity No Activity
METAR KMRN 221235Z AUTO 32004KT 10SM CLR 14/05 A3024 RMK AO2 T01400053

More Conditions Fewer Conditions

10-Day Weather Forecast

Almanac

Astronomy

May. 22, 2015 Rise Set
Actual Time
Civil Twilight
Nautical Twilight
Astronomical Twilight
Moon
Length of Visible Light
Length of Day
Tomorrow will be .
, % of the Moon is Illuminated

Today's Extremes

State Highs State Lows

Community

WunderPhotos

Upload Photos

1,823,210 photos uploaded!

WunderBlogs® & News

Nearby

Air Quality

  Air Quality AQ Index Pollutant
Not available.

Snow Depth

Station Depth Elevation

Earthquake Activity

City Distance Mag. Time & Date
Minimum magnitude displayed is 2.5.

Coastal Water Temperatures

Place Temperature

Stations

Nearby Weather Stations

Station Location Temp. Windchill Dew Point Humidity Wind Precip. Elev Updated Type